Time,TemperatureF,DewpointF,PressureIn,WindDirection,WindDirectionDegrees,WindSpeedMPH,WindSpeedGustMPH,Humidity,HourlyPrecipIn,Conditions,Clouds,dailyrainin,SoftwareType,DateUTC
2013-03-08 00:03:00,23.1,20.3,30.26,SSE,158,5.0,6.0,89,0.00,,,0.00,Wunderground v.1.15,2013-03-08 06:03:00,
2013-03-08 00:08:00,23.1,20.3,30.26,SSE,158,5.0,8.0,89,0.00,,,0.00,Wunderground v.1.15,2013-03-08 06:08:00,
2013-03-08 00:13:00,23.1,20.3,30.26,SSE,158,5.0,5.0,89,0.00,,,0.00,Wunderground v.1.15,2013-03-08 06:13:00,
2013-03-08 00:19:00,23.3,20.5,30.26,SSE,158,7.0,7.0,89,0.00,,,0.00,Wunderground v.1.15,2013-03-08 06:19:00,
2013-03-08 00:26:00,23.4,20.6,30.26,SSE,157,7.0,7.0,89,0.00,,,0.00,Wunderground v.1.15,2013-03-08 06:26:00,
2013-03-08 00:31:00,23.4,20.6,30.26,SSE,158,5.0,6.0,89,0.00,,,0.00,Wunderground v.1.15,2013-03-08 06:31:00,
2013-03-08 00:37:00,23.4,20.6,30.26,SSE,157,7.0,8.0,89,0.00,,,0.00,Wunderground v.1.15,2013-03-08 06:37:00,
2013-03-08 00:43:00,23.4,20.6,30.26,SSE,157,2.0,6.0,89,0.00,,,0.00,Wunderground v.1.15,2013-03-08 06:43:00,
2013-03-08 00:48:00,23.3,20.5,30.26,SSE,158,4.0,7.0,89,0.00,,,0.00,Wunderground v.1.15,2013-03-08 06:48:00,
2013-03-08 00:53:00,23.3,20.5,30.26,SSE,157,4.0,5.0,89,0.00,,,0.00,Wunderground v.1.15,2013-03-08 06:53:00,
2013-03-08 00:59:00,23.3,20.5,30.26,SSE,158,6.0,7.0,89,0.00,,,0.00,Wunderground v.1.15,2013-03-08 06:59:00,
2013-03-08 01:04:00,23.3,20.5,30.26,SSE,157,5.0,5.0,89,0.00,,,0.00,Wunderground v.1.15,2013-03-08 07:04:00,
2013-03-08 01:09:00,23.3,20.5,30.26,SSE,157,5.0,6.0,89,0.00,,,0.00,Wunderground v.1.15,2013-03-08 07:09:00,
2013-03-08 01:16:00,23.3,20.5,30.26,SSE,158,5.0,6.0,89,0.00,,,0.00,Wunderground v.1.15,2013-03-08 07:16:00,
2013-03-08 01:21:00,23.4,20.6,30.26,SSE,159,4.0,6.0,89,0.00,,,0.00,Wunderground v.1.15,2013-03-08 07:21:00,
2013-03-08 01:26:00,23.5,20.7,30.26,SSE,159,4.0,6.0,89,0.00,,,0.00,Wunderground v.1.15,2013-03-08 07:26:00,
2013-03-08 01:31:00,23.4,20.6,30.26,SSE,159,7.0,7.0,89,0.00,,,0.00,Wunderground v.1.15,2013-03-08 07:31:00,
2013-03-08 01:36:00,23.3,20.5,30.26,SSE,159,4.0,7.0,89,0.00,,,0.00,Wunderground v.1.15,2013-03-08 07:36:00,
2013-03-08 01:42:00,23.1,20.3,30.27,SSE,158,2.0,3.0,89,0.00,,,0.00,Wunderground v.1.15,2013-03-08 07:42:00,
2013-03-08 01:47:00,22.9,19.9,30.27,SSE,158,2.0,3.0,88,0.00,,,0.00,Wunderground v.1.15,2013-03-08 07:47:00,
2013-03-08 01:53:00,22.6,19.8,30.27,SSE,157,0.0,4.0,89,0.00,,,0.00,Wunderground v.1.15,2013-03-08 07:53:00,
2013-03-08 01:59:00,22.4,19.4,30.27,SSE,158,2.0,4.0,88,0.00,,,0.00,Wunderground v.1.15,2013-03-08 07:59:00,
2013-03-08 02:04:00,22.2,19.5,30.27,SSE,157,2.0,4.0,89,0.00,,,0.00,Wunderground v.1.15,2013-03-08 08:04:00,
2013-03-08 02:09:00,22.0,19.3,30.27,SSE,158,1.0,4.0,89,0.00,,,0.00,Wunderground v.1.15,2013-03-08 08:09:00,
2013-03-08 02:14:00,22.0,19.3,30.27,SSE,158,3.0,4.0,89,0.00,,,0.00,Wunderground v.1.15,2013-03-08 08:14:00,
2013-03-08 02:19:00,22.1,19.4,30.27,SSE,158,5.0,6.0,89,0.00,,,0.00,Wunderground v.1.15,2013-03-08 08:19:00,
2013-03-08 02:24:00,22.2,19.5,30.27,SSE,157,3.0,5.0,89,0.00,,,0.00,Wunderground v.1.15,2013-03-08 08:24:00,
2013-03-08 02:29:00,22.4,19.6,30.26,SSE,157,3.0,5.0,89,0.00,,,0.00,Wunderground v.1.15,2013-03-08 08:29:00,
2013-03-08 02:34:00,22.3,19.6,30.26,SSE,158,4.0,5.0,89,0.00,,,0.00,Wunderground v.1.15,2013-03-08 08:34:00,
2013-03-08 02:39:00,22.4,19.6,30.26,SSE,157,1.0,6.0,89,0.00,,,0.00,Wunderground v.1.15,2013-03-08 08:39:00,
2013-03-08 02:44:00,22.4,19.6,30.26,SSE,159,4.0,7.0,89,0.00,,,0.00,Wunderground v.1.15,2013-03-08 08:44:00,
2013-03-08 02:49:00,22.3,19.6,30.26,SSE,158,4.0,7.0,89,0.00,,,0.00,Wunderground v.1.15,2013-03-08 08:49:00,
2013-03-08 02:54:00,22.4,19.6,30.26,SSE,158,4.0,5.0,89,0.00,,,0.00,Wunderground v.1.15,2013-03-08 08:54:00,
2013-03-08 02:59:00,22.6,19.8,30.26,SSE,158,2.0,7.0,89,0.00,,,0.00,Wunderground v.1.15,2013-03-08 08:59:00,
2013-03-08 03:04:00,22.6,19.8,30.26,SSE,158,9.0,9.0,89,0.00,,,0.00,Wunderground v.1.15,2013-03-08 09:04:00,
2013-03-08 03:09:00,22.5,19.7,30.26,SSE,158,5.0,9.0,89,0.00,,,0.00,Wunderground v.1.15,2013-03-08 09:09:00,
2013-03-08 03:14:00,22.7,19.9,30.25,SSE,158,4.0,9.0,89,0.00,,,0.00,Wunderground v.1.15,2013-03-08 09:14:00,
2013-03-08 03:19:00,22.7,19.9,30.25,SSE,157,4.0,9.0,89,0.00,,,0.00,Wunderground v.1.15,2013-03-08 09:19:00,
2013-03-08 03:24:00,22.7,19.9,30.25,SSE,158,5.0,8.0,89,0.00,,,0.00,Wunderground v.1.15,2013-03-08 09:24:00,
2013-03-08 03:29:00,22.8,20.0,30.25,SSE,158,3.0,9.0,89,0.00,,,0.00,Wunderground v.1.15,2013-03-08 09:29:00,
2013-03-08 03:34:00,22.7,19.9,30.25,SSE,157,5.0,7.0,89,0.00,,,0.00,Wunderground v.1.15,2013-03-08 09:34:00,
2013-03-08 03:39:00,22.7,19.7,30.25,SSE,157,6.0,8.0,88,0.00,,,0.00,Wunderground v.1.15,2013-03-08 09:39:00,
2013-03-08 03:45:00,22.7,19.9,30.25,SSE,157,5.0,8.0,89,0.00,,,0.00,Wunderground v.1.15,2013-03-08 09:45:00,
2013-03-08 03:50:00,22.6,19.6,30.25,SSE,157,5.0,5.0,88,0.00,,,0.00,Wunderground v.1.15,2013-03-08 09:50:00,
2013-03-08 03:55:00,22.5,19.5,30.25,SSE,158,3.0,6.0,88,0.00,,,0.00,Wunderground v.1.15,2013-03-08 09:55:00,
2013-03-08 04:00:00,22.4,19.4,30.25,SSE,157,5.0,5.0,88,0.00,,,0.00,Wunderground v.1.15,2013-03-08 10:00:00,
2013-03-08 04:05:00,22.3,19.3,30.25,SSE,158,2.0,6.0,88,0.00,,,0.00,Wunderground v.1.15,2013-03-08 10:05:00,
2013-03-08 04:10:00,22.2,19.2,30.25,SSE,158,7.0,7.0,88,0.00,,,0.00,Wunderground v.1.15,2013-03-08 10:10:00,
2013-03-08 04:15:00,22.3,19.3,30.25,SSE,157,5.0,7.0,88,0.00,,,0.00,Wunderground v.1.15,2013-03-08 10:15:00,
2013-03-08 04:22:00,22.4,19.4,30.25,SSE,158,5.0,8.0,88,0.00,,,0.00,Wunderground v.1.15,2013-03-08 10:22:00,
2013-03-08 04:27:00,22.4,19.6,30.25,SSE,158,5.0,8.0,89,0.00,,,0.00,Wunderground v.1.15,2013-03-08 10:27:00,
2013-03-08 04:32:00,22.3,19.3,30.25,SSE,157,5.0,5.0,88,0.00,,,0.00,Wunderground v.1.15,2013-03-08 10:32:00,
2013-03-08 04:37:00,22.3,19.3,30.25,SSE,158,5.0,8.0,88,0.00,,,0.00,Wunderground v.1.15,2013-03-08 10:37:00,
2013-03-08 04:42:00,22.2,19.2,30.25,SSE,158,6.0,7.0,88,0.00,,,0.00,Wunderground v.1.15,2013-03-08 10:42:00,
2013-03-08 04:47:00,22.0,19.0,30.25,SSE,157,3.0,7.0,88,0.00,,,0.00,Wunderground v.1.15,2013-03-08 10:47:00,
2013-03-08 04:52:00,22.0,19.0,30.25,SSE,158,5.0,6.0,88,0.00,,,0.00,Wunderground v.1.15,2013-03-08 10:52:00,
2013-03-08 04:57:00,22.1,19.1,30.25,SSE,157,6.0,9.0,88,0.00,,,0.00,Wunderground v.1.15,2013-03-08 10:57:00,
2013-03-08 05:02:00,22.0,19.0,30.25,SSE,158,5.0,7.0,88,0.00,,,0.00,Wunderground v.1.15,2013-03-08 11:02:00,
2013-03-08 05:07:00,21.9,18.9,30.25,SSE,158,4.0,7.0,88,0.00,,,0.00,Wunderground v.1.15,2013-03-08 11:07:00,
2013-03-08 05:12:00,21.9,18.9,30.25,SSE,157,5.0,6.0,88,0.00,,,0.00,Wunderground v.1.15,2013-03-08 11:12:00,
2013-03-08 05:17:00,21.8,18.8,30.25,SSE,158,5.0,6.0,88,0.00,,,0.00,Wunderground v.1.15,2013-03-08 11:17:00,
2013-03-08 05:22:00,21.8,18.8,30.25,SSE,157,3.0,5.0,88,0.00,,,0.00,Wunderground v.1.15,2013-03-08 11:22:00,
2013-03-08 05:27:00,21.7,18.7,30.25,SSE,158,4.0,6.0,88,0.00,,,0.00,Wunderground v.1.15,2013-03-08 11:27:00,
2013-03-08 05:32:00,21.5,18.5,30.25,SSE,157,3.0,5.0,88,0.00,,,0.00,Wunderground v.1.15,2013-03-08 11:32:00,
2013-03-08 05:37:00,21.4,18.4,30.25,SSE,158,4.0,7.0,88,0.00,,,0.00,Wunderground v.1.15,2013-03-08 11:37:00,
2013-03-08 05:42:00,21.5,18.5,30.25,SSE,158,3.0,6.0,88,0.00,,,0.00,Wunderground v.1.15,2013-03-08 11:42:00,
2013-03-08 05:48:00,21.8,18.8,30.25,SSE,157,5.0,8.0,88,0.00,,,0.00,Wunderground v.1.15,2013-03-08 11:48:00,
2013-03-08 05:53:00,21.7,18.7,30.25,SSE,158,5.0,6.0,88,0.00,,,0.00,Wunderground v.1.15,2013-03-08 11:53:00,
2013-03-08 05:58:00,21.5,18.5,30.25,SSE,158,0.0,6.0,88,0.00,,,0.00,Wunderground v.1.15,2013-03-08 11:58:00,
2013-03-08 06:03:00,21.3,18.3,30.25,SSE,158,3.0,5.0,88,0.00,,,0.00,Wunderground v.1.15,2013-03-08 12:03:00,
2013-03-08 06:08:00,21.3,18.3,30.25,SSE,157,3.0,5.0,88,0.00,,,0.00,Wunderground v.1.15,2013-03-08 12:08:00,
2013-03-08 06:13:00,21.2,18.2,30.25,SSE,158,2.0,4.0,88,0.00,,,0.00,Wunderground v.1.15,2013-03-08 12:13:00,
2013-03-08 06:18:00,21.0,18.0,30.25,SSE,158,3.0,4.0,88,0.00,,,0.00,Wunderground v.1.15,2013-03-08 12:18:00,
2013-03-08 06:23:00,20.9,17.9,30.25,SSE,157,1.0,2.0,88,0.00,,,0.00,Wunderground v.1.15,2013-03-08 12:23:00,
2013-03-08 06:28:00,20.7,17.7,30.25,SSE,158,2.0,2.0,88,0.00,,,0.00,Wunderground v.1.15,2013-03-08 12:28:00,
2013-03-08 06:33:00,20.5,17.5,30.25,SSE,158,0.0,2.0,88,0.00,,,0.00,Wunderground v.1.15,2013-03-08 12:33:00,
2013-03-08 06:38:00,20.2,17.2,30.25,SSE,158,0.0,2.0,88,0.00,,,0.00,Wunderground v.1.15,2013-03-08 12:38:00,
2013-03-08 06:43:00,19.9,16.9,30.25,SSE,159,0.0,0.0,88,0.00,,,0.00,Wunderground v.1.15,2013-03-08 12:43:00,
2013-03-08 06:48:00,19.7,16.7,30.25,SSE,157,0.0,0.0,88,0.00,,,0.00,Wunderground v.1.15,2013-03-08 12:48:00,
2013-03-08 06:53:00,19.4,16.4,30.25,SSE,158,0.0,0.0,88,0.00,,,0.00,Wunderground v.1.15,2013-03-08 12:53:00,
2013-03-08 06:58:00,19.2,16.2,30.25,SSE,158,0.0,0.0,88,0.00,,,0.00,Wunderground v.1.15,2013-03-08 12:58:00,
2013-03-08 07:03:00,19.5,16.5,30.24,SSE,157,3.0,4.0,88,0.00,,,0.00,Wunderground v.1.15,2013-03-08 13:03:00,
2013-03-08 07:08:00,20.0,17.3,30.24,SSE,158,6.0,6.0,89,0.00,,,0.00,Wunderground v.1.15,2013-03-08 13:08:00,
2013-03-08 07:13:00,20.4,17.7,30.24,SSE,157,3.0,5.0,89,0.00,,,0.00,Wunderground v.1.15,2013-03-08 13:13:00,
2013-03-08 07:18:00,20.9,18.2,30.24,SSE,157,4.0,5.0,89,0.00,,,0.00,Wunderground v.1.15,2013-03-08 13:18:00,
2013-03-08 07:23:00,21.3,18.6,30.24,SSE,158,3.0,6.0,89,0.00,,,0.00,Wunderground v.1.15,2013-03-08 13:23:00,
2013-03-08 07:28:00,21.6,18.9,30.25,SSE,157,3.0,6.0,89,0.00,,,0.00,Wunderground v.1.15,2013-03-08 13:28:00,
2013-03-08 07:33:00,22.0,19.3,30.24,SSE,158,3.0,4.0,89,0.00,,,0.00,Wunderground v.1.15,2013-03-08 13:33:00,
2013-03-08 07:38:00,22.3,19.6,30.24,SSE,158,3.0,5.0,89,0.00,,,0.00,Wunderground v.1.15,2013-03-08 13:38:00,
2013-03-08 07:43:00,22.7,19.9,30.24,SSE,159,2.0,4.0,89,0.00,,,0.00,Wunderground v.1.15,2013-03-08 13:43:00,
2013-03-08 07:48:00,23.0,20.2,30.25,SSE,158,0.0,5.0,89,0.00,,,0.00,Wunderground v.1.15,2013-03-08 13:48:00,
2013-03-08 07:54:00,23.3,20.5,30.25,SSE,158,3.0,4.0,89,0.00,,,0.00,Wunderground v.1.15,2013-03-08 13:54:00,
2013-03-08 07:59:00,23.4,20.6,30.25,SSE,158,4.0,5.0,89,0.00,,,0.00,Wunderground v.1.15,2013-03-08 13:59:00,
2013-03-08 08:04:00,23.5,20.5,30.25,SSE,157,4.0,7.0,88,0.00,,,0.00,Wunderground v.1.15,2013-03-08 14:04:00,
2013-03-08 08:09:00,23.8,20.8,30.25,SSE,158,6.0,7.0,88,0.00,,,0.00,Wunderground v.1.15,2013-03-08 14:09:00,
2013-03-08 08:14:00,24.0,21.0,30.25,SSE,157,7.0,8.0,88,0.00,,,0.00,Wunderground v.1.15,2013-03-08 14:14:00,
2013-03-08 08:19:00,24.1,21.1,30.25,SSE,158,4.0,8.0,88,0.00,,,0.00,Wunderground v.1.15,2013-03-08 14:19:00,
2013-03-08 08:24:00,24.7,21.7,30.25,SSE,158,5.0,7.0,88,0.00,,,0.00,Wunderground v.1.15,2013-03-08 14:24:00,
2013-03-08 08:29:00,25.0,21.9,30.25,SSE,158,8.0,8.0,88,0.00,,,0.00,Wunderground v.1.15,2013-03-08 14:29:00,
2013-03-08 08:34:00,25.2,22.1,30.25,SSE,158,7.0,9.0,88,0.00,,,0.00,Wunderground v.1.15,2013-03-08 14:34:00,
2013-03-08 08:39:00,25.5,22.2,30.25,SSE,158,5.0,9.0,87,0.00,,,0.00,Wunderground v.1.15,2013-03-08 14:39:00,
2013-03-08 08:44:00,25.7,22.4,30.25,SSE,158,7.0,9.0,87,0.00,,,0.00,Wunderground v.1.15,2013-03-08 14:44:00,
2013-03-08 08:49:00,25.8,22.5,30.25,SSE,157,7.0,9.0,87,0.00,,,0.00,Wunderground v.1.15,2013-03-08 14:49:00,
2013-03-08 08:54:00,26.1,22.5,30.25,SSE,157,5.0,9.0,86,0.00,,,0.00,Wunderground v.1.15,2013-03-08 14:54:00,
2013-03-08 09:01:00,26.2,22.6,30.25,SSE,156,7.0,7.0,86,0.00,,,0.00,Wunderground v.1.15,2013-03-08 15:01:00,
2013-03-08 09:07:00,26.4,22.8,30.25,SSE,156,7.0,10.0,86,0.00,,,0.00,Wunderground v.1.15,2013-03-08 15:07:00,
2013-03-08 09:12:00,26.5,22.9,30.25,SSE,156,7.0,8.0,86,0.00,,,0.00,Wunderground v.1.15,2013-03-08 15:12:00,
2013-03-08 09:17:00,26.7,23.1,30.24,SSE,156,5.0,9.0,86,0.00,,,0.00,Wunderground v.1.15,2013-03-08 15:17:00,
2013-03-08 09:22:00,26.9,23.3,30.24,SSE,156,5.0,8.0,86,0.00,,,0.00,Wunderground v.1.15,2013-03-08 15:22:00,
2013-03-08 09:27:00,27.2,23.3,30.24,SSE,155,7.0,10.0,85,0.00,,,0.00,Wunderground v.1.15,2013-03-08 15:27:00,
2013-03-08 09:32:00,27.5,23.9,30.24,SSE,155,7.0,8.0,86,0.00,,,0.00,Wunderground v.1.15,2013-03-08 15:32:00,
2013-03-08 09:37:00,27.8,23.9,30.24,SSE,155,4.0,9.0,85,0.00,,,0.00,Wunderground v.1.15,2013-03-08 15:37:00,
2013-03-08 09:42:00,28.0,24.1,30.24,SSE,155,7.0,7.0,85,0.00,,,0.00,Wunderground v.1.15,2013-03-08 15:42:00,
2013-03-08 09:47:00,28.5,24.6,30.25,SSE,155,4.0,8.0,85,0.00,,,0.00,Wunderground v.1.15,2013-03-08 15:47:00,
2013-03-08 09:52:00,28.9,25.0,30.25,SSE,155,4.0,6.0,85,0.00,,,0.00,Wunderground v.1.15,2013-03-08 15:52:00,
2013-03-08 09:57:00,28.9,24.7,30.25,SSE,155,4.0,7.0,84,0.00,,,0.00,Wunderground v.1.15,2013-03-08 15:57:00,
2013-03-08 10:02:00,29.0,24.8,30.25,SSE,155,5.0,7.0,84,0.00,,,0.00,Wunderground v.1.15,2013-03-08 16:02:00,
2013-03-08 10:07:00,29.6,25.4,30.25,SSE,155,6.0,7.0,84,0.00,,,0.00,Wunderground v.1.15,2013-03-08 16:07:00,
2013-03-08 10:12:00,29.7,25.2,30.25,SSE,155,6.0,8.0,83,0.00,,,0.00,Wunderground v.1.15,2013-03-08 16:12:00,
2013-03-08 10:17:00,29.9,25.4,30.25,SSE,155,4.0,8.0,83,0.00,,,0.00,Wunderground v.1.15,2013-03-08 16:17:00,
2013-03-08 10:22:00,30.2,25.7,30.25,SSE,155,6.0,9.0,83,0.00,,,0.00,Wunderground v.1.15,2013-03-08 16:22:00,
2013-03-08 10:27:00,30.3,25.8,30.24,SSE,155,6.0,9.0,83,0.00,,,0.00,Wunderground v.1.15,2013-03-08 16:27:00,
2013-03-08 10:32:00,30.6,25.8,30.24,SSE,155,5.0,8.0,82,0.00,,,0.00,Wunderground v.1.15,2013-03-08 16:32:00,
2013-03-08 10:37:00,31.1,26.2,30.24,SSE,155,4.0,8.0,82,0.00,,,0.00,Wunderground v.1.15,2013-03-08 16:37:00,
2013-03-08 10:42:00,31.5,26.6,30.24,SSE,155,6.0,7.0,82,0.00,,,0.00,Wunderground v.1.15,2013-03-08 16:42:00,
2013-03-08 10:47:00,31.7,26.8,30.24,SSE,155,3.0,8.0,82,0.00,,,0.00,Wunderground v.1.15,2013-03-08 16:47:00,
2013-03-08 10:52:00,31.7,26.5,30.24,SSE,155,5.0,7.0,81,0.00,,,0.00,Wunderground v.1.15,2013-03-08 16:52:00,
2013-03-08 10:57:00,31.8,26.6,30.24,SSE,155,5.0,7.0,81,0.00,,,0.00,Wunderground v.1.15,2013-03-08 16:57:00,
2013-03-08 11:02:00,31.7,26.5,30.23,SSE,155,5.0,8.0,81,0.00,,,0.00,Wunderground v.1.15,2013-03-08 17:02:00,
2013-03-08 11:08:00,32.5,27.6,30.23,SSE,155,2.0,8.0,82,0.00,,,0.00,Wunderground v.1.15,2013-03-08 17:08:00,
2013-03-08 11:13:00,33.3,28.1,30.23,SSE,155,1.0,5.0,81,0.00,,,0.00,Wunderground v.1.15,2013-03-08 17:13:00,
2013-03-08 11:18:00,33.2,27.4,30.23,SSE,155,4.0,7.0,79,0.00,,,0.00,Wunderground v.1.15,2013-03-08 17:18:00,
2013-03-08 11:23:00,33.0,27.5,30.22,SSE,155,6.0,6.0,80,0.00,,,0.00,Wunderground v.1.15,2013-03-08 17:23:00,
2013-03-08 11:28:00,33.2,27.4,30.22,SSE,155,4.0,7.0,79,0.00,,,0.00,Wunderground v.1.15,2013-03-08 17:28:00,
2013-03-08 11:33:00,33.3,27.5,30.21,SSE,155,4.0,7.0,79,0.00,,,0.00,Wunderground v.1.15,2013-03-08 17:33:00,
2013-03-08 11:38:00,33.8,28.3,30.21,SSE,155,5.0,8.0,80,0.00,,,0.00,Wunderground v.1.15,2013-03-08 17:38:00,
2013-03-08 11:43:00,34.0,28.5,30.21,SSE,153,5.0,8.0,80,0.00,,,0.00,Wunderground v.1.15,2013-03-08 17:43:00,
2013-03-08 11:48:00,33.9,28.4,30.21,SE,144,7.0,9.0,80,0.00,,,0.00,Wunderground v.1.15,2013-03-08 17:48:00,
2013-03-08 11:53:00,33.4,27.9,30.21,SE,143,7.0,9.0,80,0.00,,,0.00,Wunderground v.1.15,2013-03-08 17:53:00,
2013-03-08 11:58:00,33.2,27.7,30.21,SE,141,8.0,9.0,80,0.00,,,0.00,Wunderground v.1.15,2013-03-08 17:58:00,
2013-03-08 12:03:00,33.9,28.4,30.21,SE,141,8.0,10.0,80,0.00,,,0.00,Wunderground v.1.15,2013-03-08 18:03:00,
2013-03-08 12:08:00,34.4,28.9,30.21,SE,141,4.0,10.0,80,0.00,,,0.00,Wunderground v.1.15,2013-03-08 18:08:00,
2013-03-08 12:13:00,34.7,29.2,30.21,SE,140,5.0,8.0,80,0.00,,,0.00,Wunderground v.1.15,2013-03-08 18:13:00,
2013-03-08 12:18:00,35.5,29.6,30.20,SE,138,5.0,9.0,79,0.00,,,0.00,Wunderground v.1.15,2013-03-08 18:18:00,
2013-03-08 12:23:00,35.7,29.8,30.20,SE,139,6.0,8.0,79,0.00,,,0.00,Wunderground v.1.15,2013-03-08 18:23:00,
2013-03-08 12:28:00,35.7,29.8,30.20,SE,138,4.0,11.0,79,0.00,,,0.00,Wunderground v.1.15,2013-03-08 18:28:00,
2013-03-08 12:33:00,35.5,29.3,30.19,SE,140,7.0,11.0,78,0.00,,,0.00,Wunderground v.1.15,2013-03-08 18:33:00,
2013-03-08 12:38:00,35.8,29.9,30.19,SE,138,8.0,11.0,79,0.00,,,0.00,Wunderground v.1.15,2013-03-08 18:38:00,
2013-03-08 12:43:00,36.1,29.9,30.19,SE,132,8.0,10.0,78,0.00,,,0.00,Wunderground v.1.15,2013-03-08 18:43:00,
2013-03-08 12:48:00,36.4,30.5,30.18,SE,130,6.0,10.0,79,0.00,,,0.00,Wunderground v.1.15,2013-03-08 18:48:00,
2013-03-08 12:53:00,36.8,30.9,30.18,SE,130,8.0,10.0,79,0.00,,,0.00,Wunderground v.1.15,2013-03-08 18:53:00,
2013-03-08 12:58:00,37.0,31.1,30.18,SE,128,9.0,11.0,79,0.00,,,0.00,Wunderground v.1.15,2013-03-08 18:58:00,
2013-03-08 13:03:00,36.9,31.0,30.17,ESE,117,10.0,12.0,79,0.00,,,0.00,Wunderground v.1.15,2013-03-08 19:03:00,
2013-03-08 13:08:00,37.4,31.5,30.17,ESE,115,8.0,13.0,79,0.00,,,0.00,Wunderground v.1.15,2013-03-08 19:08:00,
2013-03-08 13:13:00,37.0,31.1,30.17,ESE,121,9.0,10.0,79,0.00,,,0.00,Wunderground v.1.15,2013-03-08 19:13:00,
2013-03-08 13:18:00,36.8,30.9,30.17,ESE,117,10.0,12.0,79,0.00,,,0.00,Wunderground v.1.15,2013-03-08 19:18:00,
2013-03-08 13:23:00,37.0,31.4,30.17,ESE,119,5.0,10.0,80,0.00,,,0.00,Wunderground v.1.15,2013-03-08 19:23:00,
2013-03-08 13:28:00,37.3,31.4,30.16,ESE,119,7.0,10.0,79,0.00,,,0.00,Wunderground v.1.15,2013-03-08 19:28:00,
2013-03-08 13:33:00,37.3,31.4,30.16,ESE,119,7.0,12.0,79,0.00,,,0.00,Wunderground v.1.15,2013-03-08 19:33:00,
2013-03-08 13:38:00,37.6,31.7,30.16,ESE,119,7.0,12.0,79,0.00,,,0.00,Wunderground v.1.15,2013-03-08 19:38:00,
2013-03-08 13:43:00,37.9,32.0,30.16,ESE,121,7.0,9.0,79,0.00,,,0.00,Wunderground v.1.15,2013-03-08 19:43:00,
2013-03-08 13:49:00,37.7,31.5,30.16,ESE,120,5.0,11.0,78,0.00,,,0.00,Wunderground v.1.15,2013-03-08 19:49:00,
2013-03-08 13:54:00,37.2,31.3,30.16,ESE,119,5.0,11.0,79,0.00,,,0.00,Wunderground v.1.15,2013-03-08 19:54:00,
2013-03-08 13:59:00,37.3,31.4,30.15,ESE,120,8.0,11.0,79,0.00,,,0.00,Wunderground v.1.15,2013-03-08 19:59:00,
2013-03-08 14:04:00,37.2,31.3,30.15,ESE,118,9.0,13.0,79,0.00,,,0.00,Wunderground v.1.15,2013-03-08 20:04:00,
2013-03-08 14:09:00,37.7,31.8,30.15,ESE,111,8.0,13.0,79,0.00,,,0.00,Wunderground v.1.15,2013-03-08 20:09:00,
2013-03-08 14:14:00,38.0,31.7,30.15,ESE,111,9.0,12.0,78,0.00,,,0.00,Wunderground v.1.15,2013-03-08 20:14:00,
2013-03-08 14:19:00,37.9,31.7,30.15,ESE,111,8.0,12.0,78,0.00,,,0.00,Wunderground v.1.15,2013-03-08 20:19:00,
2013-03-08 14:24:00,37.5,31.3,30.15,ESE,111,10.0,12.0,78,0.00,,,0.00,Wunderground v.1.15,2013-03-08 20:24:00,
2013-03-08 14:29:00,37.5,31.6,30.14,ESE,107,9.0,12.0,79,0.00,,,0.00,Wunderground v.1.15,2013-03-08 20:29:00,
2013-03-08 14:34:00,37.5,31.6,30.14,ESE,105,8.0,13.0,79,0.00,,,0.00,Wunderground v.1.15,2013-03-08 20:34:00,
2013-03-08 14:39:00,37.4,31.8,30.14,ESE,111,11.0,13.0,80,0.00,,,0.00,Wunderground v.1.15,2013-03-08 20:39:00,
2013-03-08 14:44:00,37.4,31.8,30.14,ESE,108,10.0,11.0,80,0.00,,,0.00,Wunderground v.1.15,2013-03-08 20:44:00,
2013-03-08 14:49:00,37.4,31.8,30.14,ESE,111,4.0,13.0,80,0.00,,,0.00,Wunderground v.1.15,2013-03-08 20:49:00,
2013-03-08 14:54:00,37.5,31.9,30.14,ESE,121,10.0,14.0,80,0.00,,,0.00,Wunderground v.1.15,2013-03-08 20:54:00,
2013-03-08 14:59:00,37.3,31.7,30.13,ESE,109,10.0,14.0,80,0.00,,,0.00,Wunderground v.1.15,2013-03-08 20:59:00,
2013-03-08 15:04:00,37.1,31.8,30.14,ESE,103,11.0,13.0,81,0.00,,,0.00,Wunderground v.1.15,2013-03-08 21:04:00,
2013-03-08 15:09:00,37.6,32.3,30.13,East,101,13.0,14.0,81,0.00,,,0.00,Wunderground v.1.15,2013-03-08 21:09:00,
2013-03-08 15:14:00,37.7,32.1,30.13,ESE,104,13.0,15.0,80,0.00,,,0.00,Wunderground v.1.15,2013-03-08 21:14:00,
2013-03-08 15:19:00,37.4,31.8,30.13,ESE,105,12.0,15.0,80,0.00,,,0.00,Wunderground v.1.15,2013-03-08 21:19:00,
2013-03-08 15:24:00,37.5,32.2,30.13,ESE,114,15.0,16.0,81,0.00,,,0.00,Wunderground v.1.15,2013-03-08 21:24:00,
2013-03-08 15:29:00,37.5,32.2,30.12,ESE,105,9.0,16.0,81,0.00,,,0.00,Wunderground v.1.15,2013-03-08 21:29:00,
2013-03-08 15:34:00,37.6,32.6,30.12,ESE,106,10.0,16.0,82,0.00,,,0.00,Wunderground v.1.15,2013-03-08 21:34:00,
2013-03-08 15:39:00,37.1,31.8,30.12,ESE,108,8.0,16.0,81,0.00,,,0.00,Wunderground v.1.15,2013-03-08 21:39:00,
2013-03-08 15:44:00,36.9,31.9,30.12,ESE,107,9.0,14.0,82,0.00,,,0.00,Wunderground v.1.15,2013-03-08 21:44:00,
2013-03-08 15:49:00,37.0,32.0,30.11,ESE,113,11.0,15.0,82,0.00,,,0.00,Wunderground v.1.15,2013-03-08 21:49:00,
2013-03-08 15:54:00,36.3,31.3,30.11,ESE,110,13.0,18.0,82,0.00,,,0.00,Wunderground v.1.15,2013-03-08 21:54:00,
2013-03-08 15:59:00,36.0,31.3,30.10,ESE,103,10.0,18.0,83,0.00,,,0.00,Wunderground v.1.15,2013-03-08 21:59:00,
2013-03-08 16:04:00,36.1,31.4,30.10,ESE,106,8.0,15.0,83,0.00,,,0.00,Wunderground v.1.15,2013-03-08 22:04:00,
2013-03-08 16:09:00,35.8,31.4,30.11,East,95,11.0,15.0,84,0.00,,,0.00,Wunderground v.1.15,2013-03-08 22:09:00,
2013-03-08 16:14:00,35.5,31.1,30.11,ESE,107,8.0,15.0,84,0.00,,,0.00,Wunderground v.1.15,2013-03-08 22:14:00,
2013-03-08 16:19:00,35.4,31.0,30.11,ESE,109,7.0,15.0,84,0.00,,,0.00,Wunderground v.1.15,2013-03-08 22:19:00,
2013-03-08 16:24:00,35.2,30.9,30.11,ESE,103,7.0,13.0,84,0.00,,,0.00,Wunderground v.1.15,2013-03-08 22:24:00,
2013-03-08 16:29:00,35.2,31.1,30.11,ESE,107,10.0,15.0,85,0.00,,,0.00,Wunderground v.1.15,2013-03-08 22:29:00,
2013-03-08 16:34:00,35.4,31.3,30.11,ESE,105,13.0,13.0,85,0.00,,,0.00,Wunderground v.1.15,2013-03-08 22:34:00,
2013-03-08 16:39:00,35.4,31.3,30.10,East,100,13.0,16.0,85,0.00,,,0.00,Wunderground v.1.15,2013-03-08 22:39:00,
2013-03-08 16:44:00,35.5,31.4,30.10,East,101,11.0,16.0,85,0.00,,,0.00,Wunderground v.1.15,2013-03-08 22:44:00,
2013-03-08 16:49:00,35.7,31.6,30.10,ESE,107,13.0,16.0,85,0.00,,,0.00,Wunderground v.1.15,2013-03-08 22:49:00,
2013-03-08 16:54:00,35.4,31.3,30.10,East,101,9.0,13.0,85,0.00,,,0.00,Wunderground v.1.15,2013-03-08 22:54:00,
2013-03-08 16:59:00,35.0,30.9,30.11,ESE,106,11.0,11.0,85,0.00,,,0.00,Wunderground v.1.15,2013-03-08 22:59:00,
2013-03-08 17:06:00,34.8,31.0,30.10,ESE,103,10.0,13.0,86,0.00,,,0.00,Wunderground v.1.15,2013-03-08 23:06:00,
2013-03-08 17:12:00,34.9,31.1,30.09,ESE,107,8.0,14.0,86,0.00,,,0.00,Wunderground v.1.15,2013-03-08 23:12:00,
2013-03-08 17:17:00,35.0,31.2,30.08,ESE,103,10.0,14.0,86,0.00,,,0.00,Wunderground v.1.15,2013-03-08 23:17:00,
2013-03-08 17:22:00,35.0,31.2,30.08,ESE,108,16.0,16.0,86,0.00,,,0.00,Wunderground v.1.15,2013-03-08 23:22:00,
2013-03-08 17:27:00,34.4,30.6,30.08,ESE,115,14.0,18.0,86,0.00,,,0.00,Wunderground v.1.15,2013-03-08 23:27:00,
2013-03-08 17:32:00,34.4,30.6,30.08,ESE,108,8.0,11.0,86,0.00,,,0.00,Wunderground v.1.15,2013-03-08 23:32:00,
2013-03-08 17:37:00,33.8,30.3,30.08,East,101,7.0,15.0,87,0.00,,,0.00,Wunderground v.1.15,2013-03-08 23:37:00,
2013-03-08 17:42:00,33.5,30.0,30.08,ESE,106,8.0,10.0,87,0.00,,,0.00,Wunderground v.1.15,2013-03-08 23:42:00,
2013-03-08 17:47:00,33.3,30.1,30.07,ESE,106,13.0,13.0,88,0.00,,,0.00,Wunderground v.1.15,2013-03-08 23:47:00,
2013-03-08 17:52:00,33.2,30.0,30.07,ESE,106,11.0,13.0,88,0.00,,,0.00,Wunderground v.1.15,2013-03-08 23:52:00,
2013-03-08 17:57:00,33.2,30.0,30.07,ESE,102,10.0,14.0,88,0.00,,,0.00,Wunderground v.1.15,2013-03-08 23:57:00,
2013-03-08 18:02:00,33.2,30.0,30.07,ESE,106,10.0,13.0,88,0.00,,,0.00,Wunderground v.1.15,2013-03-09 00:02:00,
2013-03-08 18:07:00,33.0,29.8,30.06,ESE,108,9.0,13.0,88,0.00,,,0.00,Wunderground v.1.15,2013-03-09 00:07:00,
2013-03-08 18:12:00,32.9,29.7,30.06,ESE,108,9.0,12.0,88,0.00,,,0.00,Wunderground v.1.15,2013-03-09 00:12:00,
2013-03-08 18:17:00,32.9,30.0,30.06,ESE,114,11.0,13.0,89,0.00,,,0.00,Wunderground v.1.15,2013-03-09 00:17:00,
2013-03-08 18:22:00,32.8,29.9,30.06,ESE,111,13.0,13.0,89,0.00,,,0.00,Wunderground v.1.15,2013-03-09 00:22:00,
2013-03-08 18:27:00,32.8,29.9,30.06,ESE,113,7.0,15.0,89,0.00,,,0.00,Wunderground v.1.15,2013-03-09 00:27:00,
2013-03-08 18:32:00,32.9,30.0,30.06,ESE,117,7.0,12.0,89,0.00,,,0.00,Wunderground v.1.15,2013-03-09 00:32:00,
2013-03-08 18:37:00,33.0,30.1,30.06,ESE,122,8.0,17.0,89,0.00,,,0.00,Wunderground v.1.15,2013-03-09 00:37:00,
2013-03-08 18:42:00,33.1,30.2,30.06,ESE,123,12.0,12.0,89,0.00,,,0.00,Wunderground v.1.15,2013-03-09 00:42:00,
2013-03-08 18:47:00,33.1,29.9,30.06,SE,124,13.0,15.0,88,0.00,,,0.00,Wunderground v.1.15,2013-03-09 00:47:00,
2013-03-08 18:52:00,33.2,30.0,30.06,SE,126,6.0,12.0,88,0.00,,,0.00,Wunderground v.1.15,2013-03-09 00:52:00,
2013-03-08 18:57:00,33.3,30.1,30.05,ESE,123,10.0,13.0,88,0.00,,,0.00,Wunderground v.1.15,2013-03-09 00:57:00,
2013-03-08 19:02:00,33.3,30.1,30.05,SE,124,8.0,11.0,88,0.00,,,0.00,Wunderground v.1.15,2013-03-09 01:02:00,
2013-03-08 19:07:00,33.4,30.2,30.05,ESE,119,10.0,12.0,88,0.00,,,0.00,Wunderground v.1.15,2013-03-09 01:07:00,
2013-03-08 19:12:00,33.5,30.3,30.05,ESE,116,8.0,11.0,88,0.00,,,0.00,Wunderground v.1.15,2013-03-09 01:12:00,
2013-03-08 19:18:00,33.6,30.4,30.05,ESE,115,10.0,13.0,88,0.00,,,0.00,Wunderground v.1.15,2013-03-09 01:18:00,
2013-03-08 19:23:00,33.8,30.3,30.05,ESE,119,7.0,15.0,87,0.00,,,0.00,Wunderground v.1.15,2013-03-09 01:23:00,
2013-03-08 19:28:00,33.8,30.3,30.04,ESE,113,12.0,15.0,87,0.00,,,0.00,Wunderground v.1.15,2013-03-09 01:28:00,
2013-03-08 19:33:00,33.8,30.1,30.05,ESE,117,13.0,16.0,86,0.00,,,0.00,Wunderground v.1.15,2013-03-09 01:33:00,
2013-03-08 19:38:00,33.7,30.0,30.04,ESE,120,10.0,16.0,86,0.00,,,0.00,Wunderground v.1.15,2013-03-09 01:38:00,
2013-03-08 19:43:00,33.7,30.0,30.04,ESE,115,10.0,13.0,86,0.00,,,0.00,Wunderground v.1.15,2013-03-09 01:43:00,
2013-03-08 19:48:00,33.5,29.8,30.04,ESE,119,12.0,14.0,86,0.00,,,0.00,Wunderground v.1.15,2013-03-09 01:48:00,
2013-03-08 19:53:00,33.5,29.8,30.04,ESE,118,16.0,16.0,86,0.00,,,0.00,Wunderground v.1.15,2013-03-09 01:53:00,
2013-03-08 19:58:00,33.4,29.7,30.04,ESE,118,12.0,16.0,86,0.00,,,0.00,Wunderground v.1.15,2013-03-09 01:58:00,
2013-03-08 20:03:00,33.4,29.7,30.04,ESE,121,11.0,15.0,86,0.00,,,0.00,Wunderground v.1.15,2013-03-09 02:03:00,
2013-03-08 20:08:00,33.3,29.6,30.04,ESE,121,13.0,15.0,86,0.00,,,0.00,Wunderground v.1.15,2013-03-09 02:08:00,
2013-03-08 20:13:00,33.3,29.6,30.04,ESE,121,11.0,14.0,86,0.00,,,0.00,Wunderground v.1.15,2013-03-09 02:13:00,
2013-03-08 20:18:00,33.4,29.7,30.04,ESE,119,9.0,15.0,86,0.00,,,0.00,Wunderground v.1.15,2013-03-09 02:18:00,
2013-03-08 20:23:00,33.4,29.7,30.04,ESE,119,4.0,13.0,86,0.00,,,0.00,Wunderground v.1.15,2013-03-09 02:23:00,
2013-03-08 20:28:00,33.4,29.7,30.04,ESE,111,8.0,13.0,86,0.00,,,0.00,Wunderground v.1.15,2013-03-09 02:28:00,
2013-03-08 20:33:00,33.5,29.8,30.04,SE,126,9.0,16.0,86,0.00,,,0.00,Wunderground v.1.15,2013-03-09 02:33:00,
2013-03-08 20:38:00,33.5,29.8,30.04,SE,124,7.0,16.0,86,0.00,,,0.00,Wunderground v.1.15,2013-03-09 02:38:00,
2013-03-08 20:43:00,33.6,29.9,30.04,SE,129,6.0,14.0,86,0.00,,,0.00,Wunderground v.1.15,2013-03-09 02:43:00,
2013-03-08 20:48:00,33.6,29.9,30.04,SE,130,8.0,14.0,86,0.00,,,0.00,Wunderground v.1.15,2013-03-09 02:48:00,
2013-03-08 20:53:00,33.7,30.0,30.04,SE,134,7.0,13.0,86,0.00,,,0.00,Wunderground v.1.15,2013-03-09 02:53:00,
2013-03-08 20:58:00,33.7,30.0,30.04,SE,130,10.0,13.0,86,0.00,,,0.00,Wunderground v.1.15,2013-03-09 02:58:00,
2013-03-08 21:03:00,33.8,30.1,30.04,SE,130,6.0,15.0,86,0.00,,,0.00,Wunderground v.1.15,2013-03-09 03:03:00,
2013-03-08 21:08:00,33.7,30.0,30.04,SE,134,7.0,15.0,86,0.00,,,0.00,Wunderground v.1.15,2013-03-09 03:08:00,
2013-03-08 21:13:00,33.6,29.9,30.04,SE,132,9.0,13.0,86,0.00,,,0.00,Wunderground v.1.15,2013-03-09 03:13:00,
2013-03-08 21:18:00,33.7,30.0,30.04,SE,130,4.0,15.0,86,0.00,,,0.00,Wunderground v.1.15,2013-03-09 03:18:00,
2013-03-08 21:23:00,33.7,30.0,30.03,SE,134,11.0,13.0,86,0.00,,,0.00,Wunderground v.1.15,2013-03-09 03:23:00,
2013-03-08 21:28:00,33.7,30.0,30.04,SE,142,12.0,15.0,86,0.00,,,0.00,Wunderground v.1.15,2013-03-09 03:28:00,
2013-03-08 21:33:00,33.8,31.7,30.04,SE,138,12.0,16.0,92,0.00,,,0.00,Wunderground v.1.15,2013-03-09 03:33:00,
2013-03-08 21:38:00,33.9,30.2,30.04,SE,138,6.0,16.0,86,0.00,,,0.00,Wunderground v.1.15,2013-03-09 03:38:00,
2013-03-08 21:43:00,33.9,30.2,30.04,SE,138,8.0,11.0,86,0.00,,,0.00,Wunderground v.1.15,2013-03-09 03:43:00,
2013-03-08 21:48:00,33.9,30.2,30.04,SE,138,11.0,14.0,86,0.00,,,0.00,Wunderground v.1.15,2013-03-09 03:48:00,
2013-03-08 21:53:00,34.0,30.3,30.04,SE,146,10.0,14.0,86,0.00,,,0.00,Wunderground v.1.15,2013-03-09 03:53:00,
2013-03-08 21:59:00,34.1,30.4,30.04,SE,144,8.0,16.0,86,0.00,,,0.00,Wunderground v.1.15,2013-03-09 03:59:00,
2013-03-08 22:04:00,33.9,30.2,30.04,SE,136,18.0,18.0,86,0.00,,,0.01,Wunderground v.1.15,2013-03-09 04:04:00,
2013-03-08 22:09:00,33.8,31.7,30.04,SE,143,9.0,18.0,92,0.00,,,0.01,Wunderground v.1.15,2013-03-09 04:09:00,
2013-03-08 22:14:00,33.6,30.1,30.04,SSE,157,11.0,15.0,87,0.00,,,0.01,Wunderground v.1.15,2013-03-09 04:14:00,
2013-03-08 22:19:00,33.6,30.1,30.03,SE,144,12.0,19.0,87,0.04,,,0.02,Wunderground v.1.15,2013-03-09 04:19:00,
2013-03-08 22:24:00,33.3,30.1,30.03,SE,142,8.0,16.0,88,0.14,,,0.03,Wunderground v.1.15,2013-03-09 04:24:00,
2013-03-08 22:29:00,33.1,30.2,30.03,SSE,149,11.0,16.0,89,0.08,,,0.03,Wunderground v.1.15,2013-03-09 04:29:00,
2013-03-08 22:34:00,32.9,30.0,30.03,SSE,157,9.0,14.0,89,0.19,,,0.05,Wunderground v.1.15,2013-03-09 04:34:00,
2013-03-08 22:39:00,32.9,30.0,30.02,SSE,155,12.0,19.0,89,0.20,,,0.06,Wunderground v.1.15,2013-03-09 04:39:00,
2013-03-08 22:44:00,33.0,30.4,30.02,SSE,155,11.0,14.0,90,0.33,,,0.09,Wunderground v.1.15,2013-03-09 04:44:00,
2013-03-08 22:49:00,33.2,30.6,30.02,SSE,155,5.0,14.0,90,0.42,,,0.13,Wunderground v.1.15,2013-03-09 04:49:00,
2013-03-08 22:54:00,33.4,30.8,30.01,SE,141,7.0,14.0,90,0.39,,,0.16,Wunderground v.1.15,2013-03-09 04:54:00,
2013-03-08 22:59:00,33.5,30.9,30.01,SE,145,17.0,20.0,90,0.40,,,0.19,Wunderground v.1.15,2013-03-09 04:59:00,
2013-03-08 23:00:00,33.5,30.9,30.01,SSE,152,19.0,20.0,90,0.40,,,0.19,Wunderground v.1.15,2013-03-09 05:00:00,
2013-03-08 23:02:00,33.5,31.2,30.01,SE,138,10.0,20.0,91,0.29,,,0.20,Wunderground v.1.15,2013-03-09 05:02:00,
2013-03-08 23:07:00,33.4,31.1,30.00,SE,128,8.0,20.0,91,0.13,,,0.21,Wunderground v.1.15,2013-03-09 05:07:00,
2013-03-08 23:12:00,33.2,30.9,30.00,SE,142,8.0,16.0,91,0.26,,,0.24,Wunderground v.1.15,2013-03-09 05:12:00,
2013-03-08 23:17:00,33.1,30.8,30.00,SE,141,13.0,17.0,91,0.40,,,0.27,Wunderground v.1.15,2013-03-09 05:17:00,
2013-03-08 23:22:00,33.3,31.0,30.00,SE,142,7.0,13.0,91,0.24,,,0.29,Wunderground v.1.15,2013-03-09 05:22:00,
2013-03-08 23:27:00,33.3,31.0,29.99,SE,138,7.0,15.0,91,0.19,,,0.31,Wunderground v.1.15,2013-03-09 05:27:00,
2013-03-08 23:32:00,33.5,31.2,29.99,SE,128,9.0,11.0,91,0.10,,,0.32,Wunderground v.1.15,2013-03-09 05:32:00,
2013-03-08 23:37:00,33.9,31.6,29.99,SE,134,13.0,15.0,91,0.12,,,0.33,Wunderground v.1.15,2013-03-09 05:37:00,
2013-03-08 23:42:00,34.3,31.9,29.99,ESE,116,13.0,14.0,91,0.18,,,0.34,Wunderground v.1.15,2013-03-09 05:42:00,
2013-03-08 23:47:00,34.3,31.9,29.98,ESE,122,12.0,16.0,91,0.30,,,0.38,Wunderground v.1.15,2013-03-09 05:47:00,
2013-03-08 23:52:00,34.0,31.6,29.98,SE,131,15.0,18.0,91,0.11,,,0.38,Wunderground v.1.15,2013-03-09 05:52:00,
2013-03-08 23:57:00,33.9,31.6,29.98,ESE,121,13.0,22.0,91,0.07,,,0.39,Wunderground v.1.15,2013-03-09 05:57:00,